Time;durP1;ratioP1;P1;durP2;ratioP2;P2;SDS_P1;SDS_P2;PMS_P1;PMS_P2;Temp;Humidity;BMP_temperature;BMP_pressure;BME280_temperature;BME280_humidity;BME280_pressure;Samples;Min_cycle;Max_cycle;Signal;HPM_P1;HPM_P2
2022/10/16 00:00:50;;;;;;;6.23;5.07;;;11.90;99.90;;;;;;5057921;28;20544;-78
2022/10/16 00:03:17;;;;;;;7.13;3.10;;;11.90;99.90;;;;;;5060233;28;20897;-78
2022/10/16 00:05:45;;;;;;;4.90;3.57;;;12.00;99.90;;;;;;5056272;28;20485;-78
2022/10/16 00:08:12;;;;;;;5.37;3.80;;;12.00;99.90;;;;;;5057912;28;20531;-78
2022/10/16 00:10:40;;;;;;;5.57;4.87;;;12.00;99.90;;;;;;5056034;28;20465;-78
2022/10/16 00:13:08;;;;;;;7.67;4.50;;;12.00;99.90;;;;;;5055731;28;20867;-78
2022/10/16 00:15:37;;;;;;;3.33;2.80;;;12.00;99.90;;;;;;5058511;28;20502;-78
2022/10/16 00:18:04;;;;;;;4.93;3.70;;;11.90;99.90;;;;;;5055689;28;20541;-78
2022/10/16 00:20:34;;;;;;;5.90;4.10;;;11.90;99.90;;;;;;5065110;28;20530;-78
2022/10/16 00:23:03;;;;;;;8.20;3.50;;;11.90;99.90;;;;;;5061773;28;20524;-78
2022/10/16 00:25:32;;;;;;;3.40;3.10;;;11.90;99.90;;;;;;5062277;28;20493;-78
2022/10/16 00:27:59;;;;;;;7.17;4.07;;;11.80;99.90;;;;;;5056676;28;20513;-78
2022/10/16 00:30:28;;;;;;;6.07;3.30;;;11.80;99.90;;;;;;5066488;28;20488;-78
2022/10/16 00:32:55;;;;;;;7.23;3.23;;;11.80;99.90;;;;;;5059620;28;21477;-78
2022/10/16 00:35:22;;;;;;;3.90;3.50;;;11.70;99.90;;;;;;5058893;28;20520;-78
2022/10/16 00:37:49;;;;;;;6.00;3.20;;;11.80;99.90;;;;;;5064527;28;20469;-78
2022/10/16 00:40:16;;;;;;;3.73;2.33;;;11.70;99.90;;;;;;5063257;28;20572;-78
2022/10/16 00:42:43;;;;;;;5.00;3.03;;;11.80;99.90;;;;;;5060541;28;20864;-78
2022/10/16 00:45:11;;;;;;;4.20;3.80;;;11.80;99.90;;;;;;5056605;28;20458;-78
2022/10/16 00:47:44;;;;;;;8.70;3.33;;;11.70;99.90;;;;;;5063388;28;20467;-78
2022/10/16 00:50:17;;;;;;;4.30;2.73;;;11.70;99.90;;;;;;5070264;28;20519;-78
2022/10/16 00:52:47;;;;;;;9.13;4.97;;;11.70;99.90;;;;;;5063367;28;20464;-78
2022/10/16 00:55:15;;;;;;;4.17;3.20;;;11.80;99.90;;;;;;5061620;28;21456;-78
2022/10/16 00:57:43;;;;;;;6.37;3.27;;;11.70;99.90;;;;;;5058968;28;20462;-78
2022/10/16 01:00:15;;;;;;;12.43;8.10;;;11.80;99.90;;;;;;5062414;28;20577;-78
2022/10/16 01:02:43;;;;;;;12.23;7.50;;;11.80;99.90;;;;;;5061098;28;20506;-78
2022/10/16 01:05:11;;;;;;;12.07;6.30;;;11.80;99.90;;;;;;5058585;28;20466;-78
2022/10/16 01:07:46;;;;;;;11.33;6.70;;;11.90;99.90;;;;;;5051722;28;20495;-79
2022/10/16 01:10:24;;;;;;;6.80;5.93;;;11.80;99.90;;;;;;5061686;28;20557;-78
2022/10/16 01:12:56;;;;;;;10.93;5.70;;;11.80;99.90;;;;;;5062643;28;20965;-78
2022/10/16 01:15:30;;;;;;;9.67;4.90;;;11.80;99.90;;;;;;5058613;28;20519;-78
2022/10/16 01:18:04;;;;;;;10.50;4.10;;;11.70;99.90;;;;;;5064993;28;21147;-78
2022/10/16 01:20:34;;;;;;;6.50;3.73;;;11.70;99.90;;;;;;5062101;28;21221;-78
2022/10/16 01:23:13;;;;;;;5.30;4.03;;;11.60;99.90;;;;;;5059747;28;20466;-78
2022/10/16 01:26:00;;;;;;;6.03;3.90;;;11.60;99.90;;;;;;5059820;28;20537;-78
2022/10/16 01:28:35;;;;;;;14.73;7.63;;;11.60;99.90;;;;;;5058472;28;20474;-78
2022/10/16 01:31:03;;;;;;;23.03;9.67;;;11.70;99.90;;;;;;5061097;28;20493;-78
2022/10/16 01:33:38;;;;;;;40.53;9.40;;;11.70;99.90;;;;;;5062837;28;20526;-78
2022/10/16 01:36:11;;;;;;;13.40;5.83;;;11.60;99.90;;;;;;5060306;28;20455;-78
2022/10/16 01:38:40;;;;;;;10.20;5.07;;;11.50;99.90;;;;;;5062813;28;20949;-78
2022/10/16 01:41:12;;;;;;;4.20;3.90;;;11.50;99.90;;;;;;5064558;28;20551;-78
2022/10/16 01:43:45;;;;;;;8.80;4.50;;;11.40;99.90;;;;;;5058567;28;20446;-79
2022/10/16 01:46:15;;;;;;;7.83;5.33;;;11.30;99.90;;;;;;5059991;28;20834;-78
2022/10/16 01:48:42;;;;;;;12.50;5.17;;;11.30;99.90;;;;;;5055317;28;20564;-79
2022/10/16 01:51:12;;;;;;;5.40;4.50;;;11.20;99.90;;;;;;5052141;28;20466;-78
2022/10/16 01:53:41;;;;;;;8.93;4.53;;;11.10;99.90;;;;;;5055950;28;20585;-78
2022/10/16 01:56:12;;;;;;;148.13;19.17;;;11.10;99.90;;;;;;5062324;28;20575;-78
2022/10/16 01:58:46;;;;;;;33.60;6.27;;;11.10;99.90;;;;;;5050178;28;21044;-78
2022/10/16 02:01:16;;;;;;;10.57;5.10;;;11.00;99.90;;;;;;5062691;28;20494;-78
2022/10/16 02:03:45;;;;;;;10.10;6.07;;;11.00;99.90;;;;;;5056253;28;20488;-79
2022/10/16 02:06:13;;;;;;;17.20;6.20;;;10.90;99.90;;;;;;5056398;28;20469;-78
2022/10/16 02:08:43;;;;;;;8.67;4.53;;;10.90;99.90;;;;;;5058431;28;20502;-78
2022/10/16 02:11:11;;;;;;;5.53;3.87;;;10.80;99.90;;;;;;5053330;28;20457;-78
2022/10/16 02:13:44;;;;;;;3.50;2.60;;;10.80;99.90;;;;;;5064836;28;20509;-78
2022/10/16 02:16:14;;;;;;;4.40;3.40;;;10.70;99.90;;;;;;5062312;28;20823;-77
2022/10/16 02:18:41;;;;;;;6.20;4.20;;;10.70;99.90;;;;;;5062286;28;20543;-77
2022/10/16 02:21:15;;;;;;;127.73;18.27;;;10.60;99.90;;;;;;5063249;28;20938;-77
2022/10/16 02:23:49;;;;;;;4.20;2.77;;;10.60;99.90;;;;;;5044631;28;20547;-77
2022/10/16 02:26:20;;;;;;;6.40;2.83;;;10.60;99.90;;;;;;5063166;28;20901;-76
2022/10/16 02:28:54;;;;;;;3.30;2.97;;;10.50;99.90;;;;;;5061937;28;20502;-76
2022/10/16 02:31:28;;;;;;;2.93;2.67;;;10.50;99.90;;;;;;5062922;28;20478;-77
2022/10/16 02:33:57;;;;;;;3.53;3.23;;;10.60;99.90;;;;;;5062273;28;21204;-76
2022/10/16 02:36:24;;;;;;;68.57;10.27;;;10.50;99.90;;;;;;5064327;28;20480;-76
2022/10/16 02:38:51;;;;;;;34.30;6.87;;;10.50;99.90;;;;;;5060483;28;20472;-76
2022/10/16 02:41:19;;;;;;;120.23;13.70;;;10.50;99.90;;;;;;5061427;28;20546;-76
2022/10/16 02:43:46;;;;;;;160.40;19.07;;;10.60;99.90;;;;;;5060982;28;20539;-76
2022/10/16 02:46:13;;;;;;;23.07;3.43;;;10.60;99.90;;;;;;5060483;28;20550;-76
2022/10/16 02:48:41;;;;;;;100.33;9.40;;;10.50;99.90;;;;;;5063526;28;20492;-76
2022/10/16 02:51:08;;;;;;;25.53;3.10;;;10.50;99.90;;;;;;5064033;28;20447;-76
2022/10/16 02:53:35;;;;;;;76.13;11.67;;;10.40;99.90;;;;;;5064690;28;21199;-76
2022/10/16 02:56:02;;;;;;;126.73;10.17;;;10.40;99.90;;;;;;5056804;28;20488;-76
2022/10/16 02:58:29;;;;;;;91.20;10.00;;;10.40;99.90;;;;;;5059757;28;20450;-76
2022/10/16 03:00:56;;;;;;;20.40;5.40;;;10.40;99.90;;;;;;5058895;28;20988;-76
2022/10/16 03:03:23;;;;;;;40.20;6.17;;;10.40;99.90;;;;;;5062690;28;20574;-77
2022/10/16 03:05:52;;;;;;;48.27;4.87;;;10.40;99.90;;;;;;5057380;28;20496;-76
2022/10/16 03:08:23;;;;;;;34.70;5.10;;;10.50;99.90;;;;;;5062703;28;20515;-76
2022/10/16 03:10:50;;;;;;;9.83;2.90;;;10.50;99.90;;;;;;5053394;28;20547;-77
2022/10/16 03:13:17;;;;;;;5.33;4.07;;;10.50;99.90;;;;;;5059903;28;20587;-76
2022/10/16 03:15:44;;;;;;;3.53;2.57;;;10.50;99.90;;;;;;5054257;28;20520;-76
2022/10/16 03:18:11;;;;;;;8.77;3.10;;;10.40;99.90;;;;;;5062803;28;20491;-77
2022/10/16 03:20:38;;;;;;;4.10;2.33;;;10.40;99.90;;;;;;5064822;28;20831;-78
2022/10/16 03:23:08;;;;;;;2.63;2.40;;;10.60;99.90;;;;;;5059730;28;21073;-78
2022/10/16 03:25:35;;;;;;;2.50;2.30;;;10.60;99.90;;;;;;5056650;28;20567;-77
2022/10/16 03:28:03;;;;;;;2.60;2.40;;;10.50;99.90;;;;;;5049392;28;20577;-77
2022/10/16 03:30:30;;;;;;;2.73;2.53;;;10.60;99.90;;;;;;5063870;28;20444;-77
2022/10/16 03:32:56;;;;;;;4.33;2.80;;;10.60;99.90;;;;;;5063048;28;20533;-78
2022/10/16 03:35:24;;;;;;;2.57;2.37;;;10.60;99.90;;;;;;5057252;28;20603;-78
2022/10/16 03:37:51;;;;;;;4.03;2.50;;;10.50;99.90;;;;;;5062431;28;20445;-78
2022/10/16 03:40:20;;;;;;;2.30;2.20;;;10.50;99.90;;;;;;5061651;28;20445;-78
2022/10/16 03:42:47;;;;;;;3.60;3.30;;;10.50;99.90;;;;;;5061836;28;21007;-77
2022/10/16 03:45:14;;;;;;;5.40;2.70;;;10.50;99.90;;;;;;5060086;28;20939;-77
2022/10/16 03:47:42;;;;;;;3.13;2.87;;;10.60;99.90;;;;;;5060866;28;20506;-77
2022/10/16 03:50:09;;;;;;;2.67;2.00;;;10.50;99.90;;;;;;5062972;28;20531;-78
2022/10/16 03:52:36;;;;;;;60.70;6.50;;;10.50;99.90;;;;;;5063206;28;20533;-78
2022/10/16 03:55:04;;;;;;;30.67;4.80;;;10.60;99.90;;;;;;5060109;28;20977;-78
2022/10/16 03:57:32;;;;;;;111.43;8.60;;;10.50;99.90;;;;;;5067628;28;20800;-78
2022/10/16 03:59:59;;;;;;;118.93;12.13;;;10.30;99.90;;;;;;5065877;28;20488;-78
2022/10/16 04:02:26;;;;;;;48.03;4.30;;;10.40;99.90;;;;;;5064234;28;20986;-78
2022/10/16 04:04:53;;;;;;;49.73;6.40;;;10.30;99.90;;;;;;5061265;28;20445;-78
2022/10/16 04:07:20;;;;;;;50.87;5.10;;;10.30;99.90;;;;;;5064654;28;20443;-77
2022/10/16 04:09:47;;;;;;;52.67;7.40;;;10.30;99.90;;;;;;5062053;28;20452;-78
2022/10/16 04:12:14;;;;;;;45.10;5.80;;;10.30;99.90;;;;;;5053172;28;20496;-76
2022/10/16 04:14:43;;;;;;;56.87;5.07;;;10.30;99.90;;;;;;5066726;28;20483;-77
2022/10/16 04:17:10;;;;;;;109.40;8.60;;;10.10;99.90;;;;;;5060432;28;20463;-77
2022/10/16 04:19:37;;;;;;;37.97;5.73;;;10.10;99.90;;;;;;5064767;28;20487;-77
2022/10/16 04:22:04;;;;;;;52.20;4.03;;;10.10;99.90;;;;;;5065666;28;20503;-77
2022/10/16 04:24:31;;;;;;;5.90;1.47;;;10.00;99.90;;;;;;5062224;28;20491;-77
2022/10/16 04:26:58;;;;;;;18.27;3.23;;;9.90;99.90;;;;;;5065632;28;21042;-77
2022/10/16 04:29:25;;;;;;;1.73;1.13;;;10.00;99.90;;;;;;5066478;28;20523;-77
2022/10/16 04:31:53;;;;;;;6.00;1.70;;;10.00;99.90;;;;;;5061391;28;20496;-78
2022/10/16 04:34:20;;;;;;;15.83;3.67;;;9.90;99.90;;;;;;5067663;28;20475;-77
2022/10/16 04:36:49;;;;;;;4.13;1.50;;;9.90;99.90;;;;;;5059602;28;21234;-77
2022/10/16 04:39:16;;;;;;;28.37;4.60;;;10.00;99.90;;;;;;5066948;28;20475;-77
2022/10/16 04:41:43;;;;;;;1.77;1.50;;;10.00;99.90;;;;;;5066846;28;20448;-77
2022/10/16 04:44:10;;;;;;;5.57;4.93;;;10.00;99.90;;;;;;5064165;28;20536;-77
2022/10/16 04:46:37;;;;;;;3.37;3.07;;;10.20;99.90;;;;;;5062300;28;20491;-77
2022/10/16 04:49:05;;;;;;;3.97;3.03;;;10.20;99.90;;;;;;5060510;28;20660;-77
2022/10/16 04:51:32;;;;;;;10.20;4.40;;;10.30;99.90;;;;;;5066127;28;20459;-77
2022/10/16 04:53:59;;;;;;;5.93;2.20;;;10.30;99.90;;;;;;5061423;28;20486;-77
2022/10/16 04:56:26;;;;;;;11.40;3.20;;;10.30;99.90;;;;;;5064200;28;20564;-77
2022/10/16 04:58:53;;;;;;;169.77;11.13;;;10.20;99.90;;;;;;5063282;28;21109;-77
2022/10/16 05:01:20;;;;;;;173.10;13.00;;;10.20;99.90;;;;;;5068258;28;20495;-77
2022/10/16 05:03:47;;;;;;;176.07;12.83;;;10.30;99.90;;;;;;5061935;28;20540;-77
2022/10/16 05:06:15;;;;;;;47.73;4.20;;;10.30;99.90;;;;;;5065074;28;20936;-77
2022/10/16 05:08:42;;;;;;;63.63;5.90;;;10.20;99.90;;;;;;5047004;28;21037;-77
2022/10/16 05:11:09;;;;;;;39.90;3.70;;;10.10;99.90;;;;;;5062870;28;20531;-77
2022/10/16 05:13:36;;;;;;;24.90;3.90;;;10.00;99.90;;;;;;5059613;28;20463;-75
2022/10/16 05:16:03;;;;;;;33.63;5.60;;;10.00;99.90;;;;;;5062341;28;21116;-75
2022/10/16 05:18:30;;;;;;;20.47;3.80;;;10.10;99.90;;;;;;5060588;28;20824;-74
2022/10/16 05:20:57;;;;;;;16.83;3.27;;;10.10;99.90;;;;;;5062407;28;20476;-77
2022/10/16 05:23:25;;;;;;;8.70;3.10;;;10.10;99.90;;;;;;5059280;28;20456;-77
2022/10/16 05:25:57;;;;;;;91.67;12.03;;;10.10;99.90;;;;;;5057059;28;20483;-77
2022/10/16 05:28:25;;;;;;;21.53;4.30;;;10.10;99.90;;;;;;5056644;28;20491;-77
2022/10/16 05:30:52;;;;;;;26.70;5.50;;;10.00;99.90;;;;;;5060309;28;20464;-76
2022/10/16 05:33:21;;;;;;;22.13;4.33;;;10.00;99.90;;;;;;5062311;28;20576;-77
2022/10/16 05:35:49;;;;;;;16.43;3.20;;;10.00;99.90;;;;;;5060757;28;20996;-75
2022/10/16 05:38:16;;;;;;;9.97;3.50;;;9.90;99.90;;;;;;5064111;28;20578;-74
2022/10/16 05:40:51;;;;;;;77.53;9.83;;;9.80;99.90;;;;;;5060914;28;20496;-74
2022/10/16 05:43:18;;;;;;;11.03;2.80;;;9.80;99.90;;;;;;5059120;28;21638;-75
2022/10/16 05:45:44;;;;;;;17.10;2.23;;;9.90;99.90;;;;;;5055756;28;20909;-75
2022/10/16 05:48:11;;;;;;;2.00;1.70;;;9.90;99.90;;;;;;5061059;28;20561;-75
2022/10/16 05:50:38;;;;;;;1.63;1.50;;;10.00;99.90;;;;;;5059556;28;20491;-75
2022/10/16 05:53:05;;;;;;;1.90;1.77;;;10.00;99.90;;;;;;5056120;28;20640;-75
2022/10/16 05:55:32;;;;;;;2.50;2.20;;;10.00;99.90;;;;;;5061415;28;20516;-75
2022/10/16 05:58:00;;;;;;;2.20;2.10;;;10.00;99.90;;;;;;5060774;28;20487;-75
2022/10/16 06:00:27;;;;;;;6.27;2.07;;;10.10;99.90;;;;;;5060744;28;21036;-75
2022/10/16 06:02:55;;;;;;;1.80;1.70;;;10.20;99.90;;;;;;5060552;28;20546;-75
2022/10/16 06:05:21;;;;;;;11.00;2.30;;;10.20;99.90;;;;;;5057219;28;20552;-75
2022/10/16 06:07:49;;;;;;;1.67;1.57;;;10.30;99.90;;;;;;5060731;28;20497;-75
2022/10/16 06:10:16;;;;;;;3.30;1.70;;;10.40;99.90;;;;;;5059973;28;20491;-74
2022/10/16 06:12:43;;;;;;;1.80;1.70;;;10.40;99.90;;;;;;5048303;28;20553;-77
2022/10/16 06:15:11;;;;;;;2.30;1.70;;;10.40;99.90;;;;;;5053356;28;20545;-77
2022/10/16 06:17:38;;;;;;;15.83;3.20;;;10.40;99.90;;;;;;5064451;28;20555;-77
2022/10/16 06:20:06;;;;;;;80.80;7.83;;;10.60;99.90;;;;;;5059374;28;20497;-77
2022/10/16 06:22:33;;;;;;;87.30;8.53;;;10.60;99.90;;;;;;5059978;28;20449;-77
2022/10/16 06:25:00;;;;;;;122.53;13.10;;;10.60;99.90;;;;;;5062655;28;20964;-77
2022/10/16 06:27:27;;;;;;;39.27;5.77;;;10.60;99.90;;;;;;5060986;28;20492;-77
2022/10/16 06:29:54;;;;;;;45.90;5.77;;;10.60;99.90;;;;;;5058119;28;20474;-77
2022/10/16 06:32:22;;;;;;;14.87;3.83;;;10.50;99.90;;;;;;5060003;28;20476;-77
2022/10/16 06:34:50;;;;;;;9.90;3.00;;;10.40;99.90;;;;;;5049372;28;20529;-77
2022/10/16 06:37:17;;;;;;;9.20;1.77;;;10.40;99.90;;;;;;5047703;28;20542;-77
2022/10/16 06:39:43;;;;;;;29.90;4.30;;;10.40;99.90;;;;;;5046948;28;20492;-77
2022/10/16 06:42:10;;;;;;;31.53;4.27;;;10.60;99.90;;;;;;5050828;28;20492;-77
2022/10/16 06:44:37;;;;;;;82.53;8.10;;;10.80;99.90;;;;;;5046380;28;20488;-77
2022/10/16 06:47:04;;;;;;;121.20;13.03;;;10.90;99.90;;;;;;5045833;28;20851;-77
2022/10/16 06:49:32;;;;;;;116.80;11.53;;;10.90;99.90;;;;;;5051829;28;20492;-77
2022/10/16 06:51:59;;;;;;;82.80;9.37;;;10.80;99.90;;;;;;5047822;28;20496;-74
2022/10/16 06:54:26;;;;;;;96.97;8.73;;;10.80;99.90;;;;;;5054982;28;20475;-74
2022/10/16 06:56:54;;;;;;;50.23;5.83;;;10.90;99.90;;;;;;5047370;28;20520;-77
2022/10/16 06:59:21;;;;;;;52.90;4.50;;;10.90;99.90;;;;;;5053181;28;20472;-75
2022/10/16 07:01:48;;;;;;;17.77;3.13;;;10.90;99.90;;;;;;5048534;28;20914;-75
2022/10/16 07:04:15;;;;;;;42.10;5.00;;;10.90;99.90;;;;;;5050116;28;21078;-75
2022/10/16 07:06:44;;;;;;;38.33;5.00;;;10.90;99.90;;;;;;5054603;28;20492;-74
2022/10/16 07:09:11;;;;;;;12.80;3.13;;;11.10;99.90;;;;;;5052477;28;20500;-75
2022/10/16 07:11:39;;;;;;;3.90;2.00;;;11.10;99.90;;;;;;5049829;28;20489;-77
2022/10/16 07:14:15;;;;;;;60.53;8.60;;;11.40;99.90;;;;;;5047881;28;20551;-78
2022/10/16 07:16:42;;;;;;;27.60;8.83;;;11.60;99.90;;;;;;5049641;28;20518;-77
2022/10/16 07:19:11;;;;;;;66.30;13.17;;;11.80;99.90;;;;;;5050527;28;20810;-78
2022/10/16 07:21:38;;;;;;;381.73;33.47;;;11.90;99.90;;;;;;5049072;28;21085;-77
2022/10/16 07:24:12;;;;;;;43.70;6.33;;;11.90;99.90;;;;;;5048947;28;20922;-77
2022/10/16 07:26:39;;;;;;;110.90;14.10;;;11.80;99.90;;;;;;5048101;28;20461;-77
2022/10/16 07:29:07;;;;;;;119.20;14.03;;;11.80;99.90;;;;;;5041108;28;20513;-78
2022/10/16 07:31:34;;;;;;;5.53;3.13;;;11.90;99.90;;;;;;5044691;28;20494;-77
2022/10/16 07:34:01;;;;;;;4.27;3.17;;;12.00;99.90;;;;;;5047911;28;20524;-78
2022/10/16 07:36:28;;;;;;;3.63;3.13;;;12.10;99.90;;;;;;5044566;28;20516;-77
2022/10/16 07:38:55;;;;;;;15.70;8.87;;;12.20;99.90;;;;;;5046336;28;21208;-78
2022/10/16 07:41:24;;;;;;;12.00;7.67;;;12.40;99.90;;;;;;5046259;28;20451;-77
2022/10/16 07:43:53;;;;;;;3.80;3.47;;;12.40;99.90;;;;;;5048806;28;20486;-77
2022/10/16 07:46:21;;;;;;;3.13;2.83;;;12.60;99.90;;;;;;5052773;28;20462;-77
2022/10/16 07:48:48;;;;;;;6.27;4.87;;;12.80;99.90;;;;;;5063015;28;20593;-77
2022/10/16 07:51:17;;;;;;;7.67;3.90;;;12.80;99.90;;;;;;5060037;28;21055;-78
2022/10/16 07:53:44;;;;;;;5.10;3.97;;;12.80;99.90;;;;;;5057602;28;20517;-77
2022/10/16 07:56:12;;;;;;;6.70;4.80;;;13.00;99.90;;;;;;5061242;28;20622;-77
2022/10/16 07:58:41;;;;;;;3.40;3.13;;;13.00;99.90;;;;;;5050202;28;20837;-76
2022/10/16 08:01:09;;;;;;;2.50;2.40;;;13.20;99.90;;;;;;5054345;28;20876;-76
2022/10/16 08:03:36;;;;;;;3.10;2.00;;;13.40;99.90;;;;;;5061647;28;20888;-76
2022/10/16 08:06:04;;;;;;;2.50;2.10;;;13.30;99.90;;;;;;5058489;28;20491;-76
2022/10/16 08:08:31;;;;;;;2.70;2.50;;;13.10;99.90;;;;;;5059034;28;21074;-76
2022/10/16 08:10:58;;;;;;;7.77;3.40;;;13.40;99.90;;;;;;5047428;28;20545;-76
2022/10/16 08:13:26;;;;;;;4.40;4.10;;;13.50;99.90;;;;;;5053820;28;20496;-76
2022/10/16 08:15:55;;;;;;;3.30;3.03;;;13.70;99.90;;;;;;5057190;28;20786;-75
2022/10/16 08:18:22;;;;;;;3.73;2.20;;;13.80;99.90;;;;;;5044944;28;20507;-76
2022/10/16 08:20:56;;;;;;;1.60;1.37;;;13.70;99.90;;;;;;5049340;28;20921;-76
2022/10/16 08:23:23;;;;;;;2.07;1.73;;;13.80;99.90;;;;;;5051083;28;20585;-76
2022/10/16 08:25:50;;;;;;;3.03;2.20;;;14.00;99.90;;;;;;5054441;28;20463;-76
2022/10/16 08:28:16;;;;;;;1.30;1.20;;;14.10;99.90;;;;;;5049437;28;20531;-76
2022/10/16 08:30:43;;;;;;;1.03;1.03;;;14.40;99.90;;;;;;5059031;28;20488;-76
2022/10/16 08:33:12;;;;;;;7.83;1.70;;;14.40;99.90;;;;;;5053076;28;20501;-76
2022/10/16 08:35:39;;;;;;;1.40;1.30;;;14.30;99.90;;;;;;5051059;28;21157;-77
2022/10/16 08:38:06;;;;;;;4.53;1.67;;;14.30;99.90;;;;;;5049568;28;20485;-77
2022/10/16 08:40:36;;;;;;;1.73;1.63;;;14.60;99.90;;;;;;5051155;28;20544;-76
2022/10/16 08:43:30;;;;;;;7.90;1.40;;;14.80;99.90;;;;;;5048707;28;21009;-76
2022/10/16 08:46:18;;;;;;;2.10;1.73;;;14.90;99.90;;;;;;5047867;28;20905;-75
2022/10/16 08:48:48;;;;;;;0.80;0.80;;;14.90;99.90;;;;;;5040217;28;21031;-76
2022/10/16 08:51:21;;;;;;;2.93;1.40;;;14.90;99.90;;;;;;5035060;28;20568;-76
2022/10/16 08:53:54;;;;;;;1.80;1.07;;;15.20;99.90;;;;;;5042588;28;20485;-76
2022/10/16 08:56:22;;;;;;;0.90;0.70;;;15.30;99.90;;;;;;5057993;28;20570;-76
2022/10/16 08:58:50;;;;;;;0.90;0.90;;;15.50;99.90;;;;;;5057381;28;20496;-76
2022/10/16 09:01:19;;;;;;;6.13;1.40;;;15.60;99.90;;;;;;5055394;28;20501;-76
2022/10/16 09:04:15;;;;;;;1.30;1.20;;;15.70;99.90;;;;;;5055902;28;20948;-76
2022/10/16 09:06:47;;;;;;;1.30;1.20;;;15.90;99.90;;;;;;5065153;28;20485;-77
2022/10/16 09:09:38;;;;;;;1.10;1.10;;;15.90;99.90;;;;;;5063000;28;20532;-76
2022/10/16 09:12:13;;;;;;;1.40;1.03;;;16.00;99.90;;;;;;5057401;28;20470;-76
2022/10/16 09:14:51;;;;;;;2.30;0.83;;;16.20;99.90;;;;;;5059195;28;20624;-76
2022/10/16 09:17:38;;;;;;;1.57;1.10;;;16.20;99.90;;;;;;5057113;28;20587;-76
2022/10/16 09:20:28;;;;;;;1.23;1.13;;;16.10;99.90;;;;;;5052931;28;20935;-76
2022/10/16 09:23:08;;;;;;;1.03;0.93;;;16.10;99.90;;;;;;5045295;28;21030;-76
2022/10/16 09:25:36;;;;;;;1.10;1.00;;;16.10;99.90;;;;;;5050308;28;20564;-76
2022/10/16 09:28:03;;;;;;;3.50;1.37;;;16.10;99.90;;;;;;5051527;28;21111;-76
2022/10/16 09:30:30;;;;;;;1.50;1.40;;;16.20;99.90;;;;;;5056052;28;20541;-76
2022/10/16 09:32:59;;;;;;;2.63;1.17;;;16.30;99.90;;;;;;5054211;28;21191;-77
2022/10/16 09:35:38;;;;;;;2.50;1.10;;;16.50;99.90;;;;;;5055285;28;20464;-77
2022/10/16 09:38:06;;;;;;;1.33;1.20;;;16.70;99.90;;;;;;5049124;28;20545;-76
2022/10/16 09:40:35;;;;;;;3.70;1.10;;;16.70;99.90;;;;;;5052801;28;20495;-76
2022/10/16 09:43:20;;;;;;;2.57;1.20;;;16.50;99.90;;;;;;5052264;28;20466;-76
2022/10/16 09:45:55;;;;;;;2.43;1.07;;;16.60;99.90;;;;;;5053922;28;20545;-76
2022/10/16 09:48:23;;;;;;;1.67;1.20;;;16.80;99.90;;;;;;5063569;28;20459;-76
2022/10/16 09:50:59;;;;;;;1.73;1.10;;;16.70;99.90;;;;;;5060092;28;20517;-76
2022/10/16 09:53:38;;;;;;;1.70;1.60;;;16.80;99.90;;;;;;5053859;28;20995;-76
2022/10/16 09:56:06;;;;;;;1.37;1.27;;;17.00;99.90;;;;;;5055752;28;20455;-76
2022/10/16 09:58:34;;;;;;;2.27;1.43;;;17.00;99.90;;;;;;5061583;28;20452;-77
2022/10/16 10:01:01;;;;;;;3.10;2.87;;;17.00;99.90;;;;;;5058660;28;20554;-76
2022/10/16 10:03:40;;;;;;;1.30;1.20;;;17.00;99.90;;;;;;5057931;28;20490;-77
2022/10/16 10:06:21;;;;;;;1.67;1.57;;;17.00;99.90;;;;;;5053247;28;20989;-77
2022/10/16 10:09:02;;;;;;;2.60;1.70;;;17.10;99.90;;;;;;5059138;28;20560;-77
2022/10/16 10:11:40;;;;;;;1.40;1.30;;;17.10;99.90;;;;;;5059040;28;20455;-76
2022/10/16 10:14:07;;;;;;;1.57;1.47;;;17.20;99.90;;;;;;5057959;28;20996;-76
2022/10/16 10:16:34;;;;;;;2.00;1.90;;;17.30;99.90;;;;;;5060443;28;20491;-76
2022/10/16 10:19:01;;;;;;;1.37;1.27;;;17.30;99.90;;;;;;5049761;28;20918;-76
2022/10/16 10:21:29;;;;;;;2.10;1.70;;;17.30;99.90;;;;;;5061186;28;21334;-76
2022/10/16 10:23:59;;;;;;;3.53;2.10;;;17.50;99.90;;;;;;5060467;28;21165;-76
2022/10/16 10:26:30;;;;;;;2.43;1.40;;;17.60;99.90;;;;;;5057666;28;21171;-76
2022/10/16 10:29:07;;;;;;;1.60;1.50;;;17.40;99.90;;;;;;5062231;28;20566;-76
2022/10/16 10:31:40;;;;;;;1.50;1.40;;;17.30;99.90;;;;;;5063964;28;20916;-76
2022/10/16 10:34:28;;;;;;;1.90;1.30;;;17.30;99.90;;;;;;5060482;28;20448;-76
2022/10/16 10:37:03;;;;;;;1.60;1.50;;;17.50;99.90;;;;;;5061957;28;20485;-76
2022/10/16 10:39:37;;;;;;;1.63;1.53;;;17.50;99.90;;;;;;5061131;28;20548;-76
2022/10/16 10:42:22;;;;;;;2.80;1.37;;;17.70;99.90;;;;;;5055694;28;20492;-76
2022/10/16 10:45:17;;;;;;;1.87;1.77;;;17.80;99.90;;;;;;5051594;28;20507;-75
2022/10/16 10:47:52;;;;;;;1.57;1.47;;;18.00;99.90;;;;;;5053688;28;21140;-76
2022/10/16 10:50:25;;;;;;;1.73;1.63;;;18.10;99.90;;;;;;5056399;28;20491;-76
2022/10/16 10:53:05;;;;;;;2.97;1.33;;;18.30;99.90;;;;;;5054992;28;20524;-76
2022/10/16 10:55:41;;;;;;;2.43;2.23;;;18.60;99.90;;;;;;5056957;28;20483;-76
2022/10/16 10:58:42;;;;;;;1.70;1.60;;;18.70;99.90;;;;;;5057120;28;20497;-77
2022/10/16 11:01:13;;;;;;;1.90;1.80;;;18.60;99.90;;;;;;5042548;28;20523;-76
2022/10/16 11:04:06;;;;;;;1.30;1.20;;;18.80;99.90;;;;;;5047804;28;20453;-77
2022/10/16 11:06:37;;;;;;;1.43;1.33;;;18.90;99.90;;;;;;5052369;28;20764;-76
2022/10/16 11:09:11;;;;;;;1.53;1.43;;;19.10;99.90;;;;;;5047806;28;20492;-75
2022/10/16 11:11:43;;;;;;;1.87;1.60;;;19.30;99.90;;;;;;5051471;28;20496;-75
2022/10/16 11:14:19;;;;;;;1.80;1.70;;;19.30;99.90;;;;;;5062382;28;21023;-77
2022/10/16 11:16:53;;;;;;;2.30;1.77;;;19.20;99.90;;;;;;5058586;28;20524;-76
2022/10/16 11:19:29;;;;;;;3.47;1.23;;;19.20;99.90;;;;;;5058390;28;20457;-76
2022/10/16 11:22:02;;;;;;;2.80;1.80;;;19.10;99.90;;;;;;5058252;28;20966;-75
2022/10/16 11:24:40;;;;;;;1.87;1.47;;;19.30;99.90;;;;;;5056535;28;20491;-76
2022/10/16 11:27:12;;;;;;;2.30;1.37;;;19.40;99.90;;;;;;5048006;28;20916;-76
2022/10/16 11:29:47;;;;;;;1.23;1.07;;;19.50;99.90;;;;;;5054387;28;21330;-76
2022/10/16 11:32:23;;;;;;;1.37;1.27;;;19.40;99.90;;;;;;5053359;28;20491;-76
2022/10/16 11:34:54;;;;;;;3.57;1.57;;;19.60;99.90;;;;;;5050985;28;20466;-76
2022/10/16 11:37:25;;;;;;;2.17;1.40;;;19.50;99.90;;;;;;5044749;28;20508;-76
2022/10/16 11:39:59;;;;;;;2.27;1.10;;;19.60;99.90;;;;;;5049902;28;20470;-76
2022/10/16 11:42:34;;;;;;;7.40;1.10;;;19.80;99.90;;;;;;5055823;28;20490;-77
2022/10/16 11:45:09;;;;;;;2.03;1.17;;;20.00;99.90;;;;;;5047525;28;22232;-76
2022/10/16 11:47:38;;;;;;;2.00;1.53;;;20.00;99.90;;;;;;5058744;28;20455;-77
2022/10/16 11:50:18;;;;;;;2.20;1.10;;;20.40;99.90;;;;;;5058002;28;20494;-77
2022/10/16 11:52:52;;;;;;;1.37;1.27;;;20.30;99.90;;;;;;5057889;28;20536;-77
2022/10/16 11:55:24;;;;;;;3.63;1.10;;;20.30;99.90;;;;;;5048807;28;20552;-78
2022/10/16 11:57:55;;;;;;;2.60;1.10;;;20.40;99.90;;;;;;5058316;28;20580;-77
2022/10/16 12:00:28;;;;;;;1.37;1.27;;;20.30;99.90;;;;;;5047894;28;20470;-78
2022/10/16 12:03:02;;;;;;;2.70;1.30;;;20.30;99.90;;;;;;5051050;28;20468;-78
2022/10/16 12:05:43;;;;;;;1.40;1.30;;;20.30;99.90;;;;;;5049575;28;21024;-77
2022/10/16 12:08:13;;;;;;;1.10;0.80;;;20.20;99.90;;;;;;5054508;28;20897;-77
2022/10/16 12:10:44;;;;;;;0.63;0.60;;;20.20;99.90;;;;;;5049078;28;20578;-77
2022/10/16 12:13:32;;;;;;;0.70;0.70;;;20.10;99.90;;;;;;5049049;28;20494;-77
2022/10/16 12:16:21;;;;;;;2.33;0.80;;;20.10;99.90;;;;;;5048344;28;20491;-77
2022/10/16 12:18:49;;;;;;;7.03;0.93;;;20.00;99.90;;;;;;5048230;28;20487;-78
2022/10/16 12:21:19;;;;;;;1.90;0.90;;;20.10;99.90;;;;;;5051121;28;20463;-77
2022/10/16 12:23:51;;;;;;;4.10;1.20;;;20.20;99.90;;;;;;5062027;28;20474;-78
2022/10/16 12:26:27;;;;;;;5.00;2.03;;;20.20;99.90;;;;;;5064043;28;20590;-78
2022/10/16 12:28:55;;;;;;;2.90;0.97;;;20.20;99.90;;;;;;5054251;28;20522;-77
2022/10/16 12:31:23;;;;;;;1.63;1.53;;;20.40;99.90;;;;;;5052509;28;20517;-78
2022/10/16 12:34:00;;;;;;;1.20;1.10;;;20.40;99.90;;;;;;5059328;28;20462;-77
2022/10/16 12:36:32;;;;;;;1.10;1.00;;;20.40;99.90;;;;;;5051315;28;21594;-78
2022/10/16 12:39:01;;;;;;;0.97;0.80;;;20.50;99.90;;;;;;5052440;28;20515;-78
2022/10/16 12:41:31;;;;;;;2.47;1.10;;;20.60;99.90;;;;;;5056419;28;20994;-78
2022/10/16 12:44:01;;;;;;;3.90;0.80;;;20.80;99.90;;;;;;5057722;28;20498;-78
2022/10/16 12:46:39;;;;;;;1.27;0.93;;;20.80;99.90;;;;;;5052047;28;20473;-76
2022/10/16 12:49:24;;;;;;;0.87;0.87;;;20.90;99.90;;;;;;5054122;28;20463;-76
2022/10/16 12:51:51;;;;;;;0.60;0.60;;;20.90;99.90;;;;;;5054611;28;20783;-77
2022/10/16 12:54:20;;;;;;;0.60;0.57;;;20.90;99.90;;;;;;5061455;28;21017;-77
2022/10/16 12:56:59;;;;;;;5.13;0.70;;;20.90;99.90;;;;;;5054693;28;21018;-77
2022/10/16 12:59:36;;;;;;;0.80;0.80;;;21.00;99.90;;;;;;5051165;28;20560;-77